Time;durP1;ratioP1;P1;durP2;ratioP2;P2;SDS_P1;SDS_P2;PMS_P1;PMS_P2;Temp;Humidity;BMP_temperature;BMP_pressure;BME280_temperature;BME280_humidity;BME280_pressure;Samples;Min_cycle;Max_cycle;Signal;HPM_P1;HPM_P2
2023/07/10 00:01:40;;;;;;;6.78;4.20;;;29.90;57.30;;;;;;5024932;28;20059;-52
2023/07/10 00:04:16;;;;;;;6.05;3.83;;;29.80;57.30;;;;;;5024851;28;20022;-52
2023/07/10 00:06:42;;;;;;;7.57;3.90;;;29.80;57.40;;;;;;5007154;28;20066;-52
2023/07/10 00:09:08;;;;;;;5.30;4.05;;;29.80;57.50;;;;;;5006375;28;20057;-52
2023/07/10 00:11:34;;;;;;;7.88;4.00;;;29.70;57.50;;;;;;5006619;28;20090;-52
2023/07/10 00:13:59;;;;;;;6.70;3.90;;;29.70;57.60;;;;;;4988807;28;20088;-52
2023/07/10 00:16:25;;;;;;;6.88;3.85;;;29.70;57.70;;;;;;5006164;28;20101;-52
2023/07/10 00:18:51;;;;;;;4.82;3.63;;;29.70;57.70;;;;;;5011692;28;20033;-52
2023/07/10 00:21:17;;;;;;;8.15;4.03;;;29.60;57.70;;;;;;5014581;28;20041;-52
2023/07/10 00:23:43;;;;;;;6.03;3.88;;;29.60;57.80;;;;;;5017451;28;20088;-52
2023/07/10 00:26:22;;;;;;;9.30;3.60;;;29.60;57.90;;;;;;5023470;28;20030;-52
2023/07/10 00:28:49;;;;;;;5.57;3.85;;;29.50;58.00;;;;;;5004016;28;20105;-51
2023/07/10 00:31:14;;;;;;;4.15;3.75;;;29.50;58.10;;;;;;5004872;28;20041;-52
2023/07/10 00:33:40;;;;;;;4.57;3.83;;;29.50;58.10;;;;;;5001637;28;20026;-52
2023/07/10 00:36:30;;;;;;;6.25;4.18;;;29.40;58.10;;;;;;5028861;28;20033;-52
2023/07/10 00:38:56;;;;;;;6.32;3.38;;;29.40;58.20;;;;;;5016981;28;20045;-52
2023/07/10 00:41:25;;;;;;;5.57;3.63;;;29.40;58.30;;;;;;5019036;28;20042;-51
2023/07/10 00:43:56;;;;;;;5.18;3.85;;;29.40;58.40;;;;;;5022988;28;20363;-52
2023/07/10 00:46:29;;;;;;;5.05;3.95;;;29.40;58.50;;;;;;5016982;28;20034;-52
2023/07/10 00:48:58;;;;;;;6.65;3.35;;;29.30;58.50;;;;;;5027520;28;20030;-52
2023/07/10 00:51:28;;;;;;;7.43;4.18;;;29.30;58.60;;;;;;5026498;28;20026;-52
2023/07/10 00:53:53;;;;;;;5.18;3.80;;;29.20;58.60;;;;;;5011403;28;20037;-52
2023/07/10 00:56:19;;;;;;;8.35;4.00;;;29.20;58.70;;;;;;5010375;28;20038;-52
2023/07/10 00:58:46;;;;;;;5.78;3.85;;;29.20;58.80;;;;;;5027230;28;20022;-52
2023/07/10 01:01:19;;;;;;;5.18;3.80;;;29.10;58.80;;;;;;5026950;28;20034;-52
2023/07/10 01:03:46;;;;;;;7.60;3.83;;;29.10;58.90;;;;;;5022970;28;20053;-52
2023/07/10 01:06:29;;;;;;;4.25;3.30;;;29.10;58.90;;;;;;5013384;28;20030;-52
2023/07/10 01:09:04;;;;;;;6.22;3.40;;;29.10;59.00;;;;;;4991755;28;20037;-52
2023/07/10 01:11:30;;;;;;;4.70;3.80;;;29.00;59.00;;;;;;5023423;28;20019;-53
2023/07/10 01:13:56;;;;;;;5.97;3.72;;;29.00;59.10;;;;;;5012833;28;20036;-52
2023/07/10 01:16:22;;;;;;;6.47;4.03;;;29.00;59.30;;;;;;4987566;28;20062;-52
2023/07/10 01:18:48;;;;;;;6.85;3.97;;;28.90;59.20;;;;;;5014091;28;20113;-52
2023/07/10 01:21:32;;;;;;;4.22;3.50;;;28.90;59.40;;;;;;5009000;28;20056;-52
2023/07/10 01:24:02;;;;;;;5.85;3.60;;;28.90;59.50;;;;;;5017286;28;20038;-52
2023/07/10 01:26:28;;;;;;;6.32;3.90;;;28.80;59.40;;;;;;5027044;28;20037;-52
2023/07/10 01:28:53;;;;;;;5.53;3.78;;;28.80;59.50;;;;;;5004807;28;20031;-52
2023/07/10 01:31:19;;;;;;;4.63;3.50;;;28.70;59.60;;;;;;5010262;28;20093;-52
2023/07/10 01:33:51;;;;;;;6.85;4.03;;;28.80;59.70;;;;;;5015240;28;20052;-52
2023/07/10 01:36:18;;;;;;;8.63;4.25;;;28.70;59.60;;;;;;5006895;28;20053;-52
2023/07/10 01:38:49;;;;;;;5.60;3.75;;;28.70;59.80;;;;;;5025775;28;20061;-52
2023/07/10 01:41:21;;;;;;;5.43;3.95;;;28.60;59.80;;;;;;5018976;28;20165;-52
2023/07/10 01:43:46;;;;;;;5.47;3.70;;;28.60;59.90;;;;;;5008498;28;20038;-52
2023/07/10 01:46:20;;;;;;;5.57;3.30;;;28.60;59.90;;;;;;5025115;28;20069;-52
2023/07/10 01:48:46;;;;;;;7.78;4.50;;;28.60;60.00;;;;;;5009620;28;20033;-53
2023/07/10 01:51:11;;;;;;;5.63;4.07;;;28.60;60.10;;;;;;5026285;28;20030;-53
2023/07/10 01:53:37;;;;;;;6.88;4.15;;;28.60;60.10;;;;;;5025898;28;20030;-52
2023/07/10 01:56:03;;;;;;;5.72;4.15;;;28.50;60.00;;;;;;5007547;28;20081;-52
2023/07/10 01:58:28;;;;;;;8.27;4.03;;;28.50;60.10;;;;;;5006908;28;20030;-52
2023/07/10 02:00:54;;;;;;;8.98;3.92;;;28.50;60.20;;;;;;5022031;28;20037;-52
2023/07/10 02:03:19;;;;;;;5.43;4.03;;;28.50;60.30;;;;;;5026280;28;20033;-52
2023/07/10 02:05:45;;;;;;;7.53;4.10;;;28.40;60.30;;;;;;5026791;28;20041;-52
2023/07/10 02:08:10;;;;;;;6.88;3.83;;;28.40;60.40;;;;;;5027041;28;20034;-52
2023/07/10 02:10:36;;;;;;;4.53;3.78;;;28.40;60.60;;;;;;5027221;28;20390;-52
2023/07/10 02:13:01;;;;;;;5.25;3.92;;;28.30;60.50;;;;;;5027677;28;20448;-52
2023/07/10 02:15:27;;;;;;;4.47;3.70;;;28.30;60.70;;;;;;5027131;28;20026;-52
2023/07/10 02:17:52;;;;;;;6.90;3.88;;;28.30;60.80;;;;;;5020349;28;20022;-52
2023/07/10 02:20:18;;;;;;;6.20;3.70;;;28.30;60.90;;;;;;5020938;28;20089;-52
2023/07/10 02:22:43;;;;;;;5.75;3.92;;;28.20;60.80;;;;;;5015763;28;20428;-52
2023/07/10 02:25:09;;;;;;;4.25;3.78;;;28.20;60.90;;;;;;5025413;28;20033;-52
2023/07/10 02:27:34;;;;;;;6.65;3.95;;;28.20;61.00;;;;;;5025313;28;20030;-52
2023/07/10 02:30:00;;;;;;;5.30;3.53;;;28.10;61.00;;;;;;5024821;28;20058;-53
2023/07/10 02:32:25;;;;;;;6.15;3.50;;;28.10;61.10;;;;;;5026508;28;20029;-52
2023/07/10 02:34:51;;;;;;;5.55;3.67;;;28.10;61.20;;;;;;5025653;28;20029;-52
2023/07/10 02:37:17;;;;;;;4.82;3.83;;;28.10;61.20;;;;;;5016800;28;20046;-52
2023/07/10 02:39:42;;;;;;;4.93;4.13;;;28.00;61.30;;;;;;5022107;28;20030;-52
2023/07/10 02:42:08;;;;;;;5.82;3.90;;;28.00;61.40;;;;;;5022179;28;20088;-52
2023/07/10 02:44:33;;;;;;;5.60;4.05;;;28.00;61.50;;;;;;5025100;28;20049;-52
2023/07/10 02:46:59;;;;;;;4.63;3.40;;;28.00;61.60;;;;;;5025500;28;20030;-52
2023/07/10 02:49:24;;;;;;;7.03;4.18;;;28.00;61.70;;;;;;5026555;28;20033;-52
2023/07/10 02:51:50;;;;;;;5.60;3.75;;;28.00;62.40;;;;;;5026322;28;20053;-52
2023/07/10 02:54:15;;;;;;;5.25;3.80;;;27.90;61.70;;;;;;5024761;28;20449;-52
2023/07/10 02:56:41;;;;;;;5.97;3.90;;;27.90;61.70;;;;;;5025293;28;20029;-52
2023/07/10 02:59:06;;;;;;;4.57;3.70;;;27.90;61.80;;;;;;5008485;28;20092;-52
2023/07/10 03:01:32;;;;;;;5.47;3.80;;;27.90;61.90;;;;;;5026361;28;20033;-52
2023/07/10 03:03:57;;;;;;;5.35;3.83;;;27.80;61.80;;;;;;5008694;28;20041;-52
2023/07/10 03:06:24;;;;;;;4.25;3.42;;;27.80;62.00;;;;;;5026884;28;20042;-52
2023/07/10 03:08:50;;;;;;;4.63;3.35;;;27.80;62.00;;;;;;5008659;28;20053;-52
2023/07/10 03:11:16;;;;;;;8.32;4.00;;;27.80;62.10;;;;;;5004659;28;20026;-52
2023/07/10 03:13:41;;;;;;;4.65;3.65;;;27.80;62.10;;;;;;5016300;28;20072;-52
2023/07/10 03:16:11;;;;;;;7.43;4.13;;;27.70;62.10;;;;;;5024621;28;20096;-52
2023/07/10 03:18:37;;;;;;;6.57;4.05;;;27.70;62.20;;;;;;5025388;28;20045;-52
2023/07/10 03:21:03;;;;;;;8.63;4.35;;;27.70;62.20;;;;;;5024971;28;20446;-53
2023/07/10 03:23:28;;;;;;;4.35;3.70;;;27.60;62.20;;;;;;5025444;28;20202;-52
2023/07/10 03:25:54;;;;;;;4.32;3.75;;;27.60;62.30;;;;;;5004846;28;20034;-52
2023/07/10 03:28:20;;;;;;;5.85;3.63;;;27.60;62.40;;;;;;5021547;28;20034;-52
2023/07/10 03:30:45;;;;;;;5.88;3.65;;;27.60;62.50;;;;;;5039804;28;20036;-52
2023/07/10 03:33:15;;;;;;;8.45;4.25;;;27.60;62.40;;;;;;5024989;28;20065;-52
2023/07/10 03:35:41;;;;;;;5.78;4.07;;;27.60;62.50;;;;;;5025682;28;20037;-52
2023/07/10 03:38:06;;;;;;;5.20;4.20;;;27.60;62.60;;;;;;5023659;28;20033;-52
2023/07/10 03:40:32;;;;;;;5.93;3.63;;;27.50;62.60;;;;;;5010262;28;20424;-52
2023/07/10 03:42:57;;;;;;;6.45;4.13;;;27.50;62.60;;;;;;5022354;28;20124;-52
2023/07/10 03:45:23;;;;;;;6.20;3.90;;;27.50;62.70;;;;;;5024681;28;20034;-52
2023/07/10 03:47:48;;;;;;;6.75;3.90;;;27.40;62.70;;;;;;5023901;28;20038;-52
2023/07/10 03:50:14;;;;;;;6.50;4.43;;;27.40;62.70;;;;;;5024900;28;20052;-52
2023/07/10 03:52:39;;;;;;;5.13;3.75;;;27.40;62.70;;;;;;5006617;28;20031;-52
2023/07/10 03:55:05;;;;;;;6.55;3.70;;;27.40;62.80;;;;;;4989205;28;20061;-52
2023/07/10 03:57:31;;;;;;;5.68;3.85;;;27.30;62.80;;;;;;5021894;28;20038;-53
2023/07/10 03:59:56;;;;;;;7.00;3.88;;;27.30;62.90;;;;;;5025558;28;20110;-50
2023/07/10 04:02:22;;;;;;;5.72;3.97;;;27.30;63.00;;;;;;5024403;28;20034;-50
2023/07/10 04:04:47;;;;;;;5.05;3.40;;;27.30;63.00;;;;;;5008426;28;20030;-50
2023/07/10 04:07:13;;;;;;;5.88;3.80;;;27.30;63.10;;;;;;5024479;28;20486;-50
2023/07/10 04:09:38;;;;;;;5.63;3.70;;;27.30;63.10;;;;;;5027061;28;20037;-50
2023/07/10 04:12:04;;;;;;;5.60;3.67;;;27.30;63.20;;;;;;5029271;28;20101;-50
2023/07/10 04:14:30;;;;;;;7.60;3.90;;;27.20;63.20;;;;;;5029239;28;20030;-50
2023/07/10 04:16:55;;;;;;;4.63;3.80;;;27.20;63.30;;;;;;5016642;28;20050;-50
2023/07/10 04:19:21;;;;;;;5.80;4.20;;;27.20;63.40;;;;;;5009022;28;20038;-52
2023/07/10 04:21:47;;;;;;;4.93;3.90;;;27.20;63.40;;;;;;5035689;28;20034;-52
2023/07/10 04:24:12;;;;;;;5.50;3.50;;;27.20;63.60;;;;;;5029117;28;20045;-53
2023/07/10 04:26:38;;;;;;;5.13;3.75;;;27.10;63.50;;;;;;5029033;28;20052;-53
2023/07/10 04:29:05;;;;;;;8.20;3.95;;;27.10;63.50;;;;;;5027122;28;20022;-53
2023/07/10 04:31:30;;;;;;;8.00;4.45;;;27.10;63.50;;;;;;5028015;28;20026;-53
2023/07/10 04:33:56;;;;;;;4.68;3.70;;;27.10;63.70;;;;;;5027151;28;20072;-53
2023/07/10 04:36:22;;;;;;;6.55;3.92;;;27.10;63.60;;;;;;5011135;28;20034;-53
2023/07/10 04:38:48;;;;;;;7.47;3.83;;;27.10;63.80;;;;;;5029149;28;20125;-53
2023/07/10 04:41:19;;;;;;;5.18;4.07;;;27.00;63.60;;;;;;5011801;28;20093;-53
2023/07/10 04:43:45;;;;;;;5.40;4.00;;;27.00;63.60;;;;;;5026973;28;20068;-50
2023/07/10 04:46:11;;;;;;;5.65;4.00;;;27.00;63.80;;;;;;5027556;28;20026;-50
2023/07/10 04:48:37;;;;;;;4.85;3.80;;;27.00;63.80;;;;;;5027867;28;20034;-50
2023/07/10 04:51:03;;;;;;;6.32;3.78;;;27.00;64.60;;;;;;5027843;28;20087;-50
2023/07/10 04:53:30;;;;;;;6.30;4.07;;;27.00;63.90;;;;;;5026602;28;20038;-50
2023/07/10 04:55:55;;;;;;;5.43;3.97;;;27.00;64.10;;;;;;5028002;28;20452;-50
2023/07/10 04:58:22;;;;;;;6.80;3.95;;;26.90;64.10;;;;;;5019052;28;20034;-52
2023/07/10 05:00:55;;;;;;;5.20;3.78;;;26.90;64.00;;;;;;5012678;28;20100;-52
2023/07/10 05:03:21;;;;;;;5.07;3.53;;;26.90;63.90;;;;;;5026641;28;20030;-52
2023/07/10 05:05:57;;;;;;;5.55;3.78;;;26.90;64.00;;;;;;5007986;28;20548;-52
2023/07/10 05:08:24;;;;;;;6.55;4.00;;;26.90;64.00;;;;;;5017321;28;20041;-52
2023/07/10 05:10:50;;;;;;;5.95;4.07;;;26.90;64.00;;;;;;5027520;28;20112;-52
2023/07/10 05:13:17;;;;;;;7.18;4.40;;;26.90;64.30;;;;;;5028291;28;20029;-52
2023/07/10 05:15:43;;;;;;;6.78;4.10;;;26.90;64.40;;;;;;5028113;28;20101;-52
2023/07/10 05:18:09;;;;;;;6.68;4.05;;;26.80;64.50;;;;;;5026649;28;20033;-52
2023/07/10 05:20:34;;;;;;;9.93;4.20;;;26.80;65.20;;;;;;5014013;28;20030;-52
2023/07/10 05:23:00;;;;;;;5.55;4.25;;;26.80;64.50;;;;;;5023217;28;20074;-52
2023/07/10 05:25:25;;;;;;;6.03;3.97;;;26.80;64.60;;;;;;5027446;28;20032;-52
2023/07/10 05:27:51;;;;;;;6.95;4.20;;;26.80;64.40;;;;;;5010148;28;20117;-52
2023/07/10 05:30:17;;;;;;;5.72;4.00;;;26.80;64.30;;;;;;5027198;28;20026;-53
2023/07/10 05:32:42;;;;;;;5.80;4.20;;;26.80;64.40;;;;;;5026777;28;20049;-53
2023/07/10 05:35:08;;;;;;;6.30;4.00;;;26.80;64.60;;;;;;5026510;28;20037;-53
2023/07/10 05:37:34;;;;;;;4.72;3.92;;;26.70;64.60;;;;;;5027598;28;20038;-53
2023/07/10 05:39:59;;;;;;;7.53;4.43;;;26.70;64.90;;;;;;5017569;28;20058;-53
2023/07/10 05:42:25;;;;;;;5.50;4.22;;;26.70;64.90;;;;;;5027639;28;20042;-53
2023/07/10 05:44:50;;;;;;;5.97;3.92;;;26.70;65.20;;;;;;5026984;28;20052;-53
2023/07/10 05:47:17;;;;;;;9.50;4.45;;;26.70;65.30;;;;;;5025322;28;20046;-53
2023/07/10 05:49:42;;;;;;;5.18;4.10;;;26.70;65.70;;;;;;5015025;28;20050;-53
2023/07/10 05:52:08;;;;;;;6.95;4.63;;;26.60;66.00;;;;;;5023503;28;20030;-53
2023/07/10 05:54:34;;;;;;;6.53;4.32;;;26.60;66.50;;;;;;5025939;28;20030;-53
2023/07/10 05:56:59;;;;;;;4.25;3.75;;;26.60;66.80;;;;;;5012012;28;20036;-53
2023/07/10 05:59:25;;;;;;;7.38;4.25;;;26.60;67.20;;;;;;5026049;28;20033;-53
2023/07/10 06:01:50;;;;;;;7.07;4.75;;;26.60;67.50;;;;;;5009419;28;20030;-53
2023/07/10 06:04:16;;;;;;;8.30;4.50;;;26.60;67.80;;;;;;5014031;28;20041;-53
2023/07/10 06:06:41;;;;;;;9.07;4.43;;;26.60;68.10;;;;;;4997954;28;20060;-53
2023/07/10 06:09:07;;;;;;;8.68;4.28;;;26.50;68.50;;;;;;5025950;28;20030;-53
2023/07/10 06:11:33;;;;;;;9.98;4.75;;;26.50;68.70;;;;;;5026416;28;20086;-53
2023/07/10 06:13:58;;;;;;;12.23;4.68;;;26.50;69.00;;;;;;5024818;28;20042;-53
2023/07/10 06:16:24;;;;;;;9.55;4.50;;;26.60;70.10;;;;;;5025293;28;20033;-53
2023/07/10 06:18:49;;;;;;;8.68;4.93;;;26.60;72.70;;;;;;5017431;28;20045;-53
2023/07/10 06:21:15;;;;;;;8.82;5.13;;;26.50;72.20;;;;;;5026878;28;20044;-53
2023/07/10 06:23:40;;;;;;;9.07;4.90;;;26.60;71.70;;;;;;5024700;28;20053;-53
2023/07/10 06:26:06;;;;;;;8.55;4.93;;;26.50;71.00;;;;;;5025251;28;20030;-53
2023/07/10 06:28:32;;;;;;;6.68;4.40;;;26.50;70.70;;;;;;5017306;28;20372;-53
2023/07/10 06:31:09;;;;;;;8.40;4.53;;;26.60;70.90;;;;;;5015473;28;20232;-53
2023/07/10 06:33:35;;;;;;;9.43;4.95;;;26.50;71.10;;;;;;5011330;28;20034;-53
2023/07/10 06:36:01;;;;;;;7.47;4.60;;;26.60;71.30;;;;;;5023041;28;20030;-53
2023/07/10 06:38:26;;;;;;;8.65;4.50;;;26.60;71.40;;;;;;5018572;28;20057;-53
2023/07/10 06:40:52;;;;;;;11.65;4.80;;;26.60;71.30;;;;;;5005353;28;20030;-53
2023/07/10 06:43:18;;;;;;;8.63;5.18;;;26.60;71.60;;;;;;5021758;28;20077;-52
2023/07/10 06:45:44;;;;;;;12.75;5.03;;;26.60;71.90;;;;;;5016860;28;20034;-52
2023/07/10 06:48:09;;;;;;;10.20;5.20;;;26.60;72.40;;;;;;5011768;28;20033;-53
2023/07/10 06:50:35;;;;;;;10.55;4.93;;;26.70;72.60;;;;;;5003413;28;20026;-53
2023/07/10 06:53:00;;;;;;;10.55;4.90;;;26.70;72.60;;;;;;5004927;28;20153;-53
2023/07/10 06:55:26;;;;;;;9.63;4.60;;;26.70;72.50;;;;;;5023159;28;20041;-53
2023/07/10 06:57:51;;;;;;;7.75;4.88;;;26.70;72.50;;;;;;5020244;28;20394;-52
2023/07/10 07:00:17;;;;;;;7.13;4.82;;;26.70;72.90;;;;;;5022799;28;20028;-53
2023/07/10 07:02:43;;;;;;;9.73;4.80;;;26.80;73.50;;;;;;5002721;28;20034;-53
2023/07/10 07:05:09;;;;;;;9.27;4.78;;;26.80;73.70;;;;;;5022832;28;20028;-53
2023/07/10 07:07:35;;;;;;;8.07;4.70;;;26.80;73.50;;;;;;5018542;28;20034;-52
2023/07/10 07:10:00;;;;;;;13.98;5.22;;;26.80;73.60;;;;;;5018916;28;20022;-53
2023/07/10 07:12:26;;;;;;;8.73;4.75;;;26.80;73.80;;;;;;5021763;28;20037;-53
2023/07/10 07:14:52;;;;;;;13.30;5.15;;;26.80;73.80;;;;;;5019572;28;20093;-53
2023/07/10 07:17:17;;;;;;;12.60;4.55;;;26.80;73.90;;;;;;5021842;28;20056;-53
2023/07/10 07:19:44;;;;;;;15.55;5.68;;;26.80;73.90;;;;;;5005355;28;20037;-53
2023/07/10 07:22:10;;;;;;;13.38;5.45;;;26.80;74.20;;;;;;5019799;28;20037;-52
2023/07/10 07:24:36;;;;;;;16.40;5.95;;;26.80;74.10;;;;;;5016703;28;20022;-53
2023/07/10 07:27:01;;;;;;;13.43;5.90;;;26.80;74.10;;;;;;5022203;28;20037;-52
2023/07/10 07:29:27;;;;;;;18.52;6.60;;;26.80;74.10;;;;;;5022381;28;20026;-53
2023/07/10 07:31:53;;;;;;;16.77;5.65;;;26.90;74.60;;;;;;5022517;28;20026;-53
2023/07/10 07:34:18;;;;;;;15.93;5.65;;;26.80;74.70;;;;;;5005026;28;20038;-53
2023/07/10 07:36:44;;;;;;;31.00;6.43;;;26.80;77.30;;;;;;5027297;28;20029;-53
2023/07/10 07:39:09;;;;;;;29.20;6.80;;;26.90;77.80;;;;;;5023739;28;20474;-53
2023/07/10 07:41:35;;;;;;;100.22;9.32;;;26.80;78.60;;;;;;5024456;28;20038;-53
2023/07/10 07:44:01;;;;;;;18.20;5.90;;;26.80;78.60;;;;;;5021069;28;20026;-53
2023/07/10 07:46:27;;;;;;;16.48;6.03;;;26.80;77.90;;;;;;5023043;28;20026;-53
2023/07/10 07:48:52;;;;;;;20.27;6.05;;;26.80;79.20;;;;;;5023805;28;20049;-53
2023/07/10 07:51:18;;;;;;;33.50;6.25;;;26.80;79.00;;;;;;5022489;28;20038;-53
2023/07/10 07:53:43;;;;;;;15.40;5.43;;;26.80;79.10;;;;;;5023780;28;20038;-53
2023/07/10 07:56:09;;;;;;;15.50;6.45;;;26.80;78.50;;;;;;5020742;28;20029;-52
2023/07/10 07:58:35;;;;;;;28.25;6.10;;;26.80;78.60;;;;;;5024283;28;20096;-53
2023/07/10 08:01:00;;;;;;;14.82;5.65;;;26.80;79.50;;;;;;5022221;28;20029;-53
2023/07/10 08:03:27;;;;;;;19.75;5.90;;;26.90;80.30;;;;;;5023348;28;20054;-52
2023/07/10 08:05:52;;;;;;;17.30;6.25;;;26.90;79.10;;;;;;5021617;28;20066;-53
2023/07/10 08:08:18;;;;;;;15.38;5.57;;;26.80;78.90;;;;;;5021827;28;20037;-53
2023/07/10 08:10:46;;;;;;;14.48;5.50;;;26.90;79.10;;;;;;5022871;28;20022;-53
2023/07/10 08:13:11;;;;;;;11.63;5.28;;;26.90;78.60;;;;;;5021842;28;20049;-53
2023/07/10 08:15:37;;;;;;;12.73;5.85;;;26.90;78.50;;;;;;5021439;28;20034;-53
2023/07/10 08:18:03;;;;;;;20.75;6.10;;;27.00;78.70;;;;;;5022987;28;20030;-53
2023/07/10 08:20:28;;;;;;;18.25;5.53;;;27.00;78.90;;;;;;5022626;28;20501;-53
2023/07/10 08:22:54;;;;;;;21.13;6.95;;;27.00;78.40;;;;;;5023523;28;20037;-53
2023/07/10 08:25:20;;;;;;;19.67;6.20;;;27.00;78.80;;;;;;5019651;28;20040;-53
2023/07/10 08:27:45;;;;;;;17.42;5.55;;;27.00;78.70;;;;;;5019783;28;20030;-53
2023/07/10 08:30:12;;;;;;;17.42;6.25;;;27.00;78.20;;;;;;5023323;28;20028;-53
2023/07/10 08:32:38;;;;;;;14.20;5.63;;;27.00;78.40;;;;;;5023158;28;20506;-52
2023/07/10 08:35:04;;;;;;;18.70;6.53;;;27.10;78.10;;;;;;5022360;28;20033;-53
2023/07/10 08:37:29;;;;;;;17.20;6.13;;;27.10;78.20;;;;;;5017906;28;20068;-53
2023/07/10 08:39:58;;;;;;;20.77;6.35;;;27.10;78.10;;;;;;5005515;28;20030;-53
2023/07/10 08:42:28;;;;;;;27.30;7.50;;;27.10;77.90;;;;;;5020936;28;20069;-53
2023/07/10 08:44:54;;;;;;;28.30;7.07;;;27.20;77.60;;;;;;5021740;28;20026;-53
2023/07/10 08:47:26;;;;;;;30.70;7.18;;;27.20;78.10;;;;;;5004890;28;20056;-53
2023/07/10 08:50:07;;;;;;;34.22;7.45;;;27.20;78.20;;;;;;5022669;28;20034;-52
2023/07/10 08:52:40;;;;;;;41.70;7.50;;;27.30;78.00;;;;;;5021098;28;20037;-53
2023/07/10 08:55:13;;;;;;;43.78;7.82;;;27.30;77.90;;;;;;5004181;28;20049;-53
2023/07/10 08:57:41;;;;;;;44.58;8.30;;;27.30;77.50;;;;;;5022618;28;20065;-53
2023/07/10 09:00:12;;;;;;;54.58;8.27;;;27.30;77.20;;;;;;5008375;28;20022;-52
2023/07/10 09:03:05;;;;;;;43.25;8.25;;;27.30;76.90;;;;;;5006583;28;20052;-53
2023/07/10 09:05:30;;;;;;;67.82;9.57;;;27.40;76.80;;;;;;5010514;28;20034;-53
2023/07/10 09:08:00;;;;;;;63.85;9.65;;;27.40;77.10;;;;;;5017916;28;20030;-53
2023/07/10 09:10:47;;;;;;;48.05;8.70;;;27.40;76.70;;;;;;5015376;28;20033;-52
2023/07/10 09:13:38;;;;;;;49.58;9.02;;;27.50;76.40;;;;;;5031563;28;20069;-53
2023/07/10 09:16:13;;;;;;;50.80;9.55;;;27.50;76.30;;;;;;5026042;28;20030;-52
2023/07/10 09:18:44;;;;;;;48.63;9.07;;;27.50;76.20;;;;;;4992105;28;20051;-53
2023/07/10 09:21:36;;;;;;;45.47;8.52;;;27.50;76.00;;;;;;5000745;28;20185;-53
2023/07/10 09:24:03;;;;;;;56.58;10.10;;;27.60;76.10;;;;;;5024142;28;20037;-53
2023/07/10 09:26:30;;;;;;;55.25;9.77;;;27.60;76.00;;;;;;5026791;28;20045;-52
2023/07/10 09:29:11;;;;;;;38.63;8.52;;;27.60;75.90;;;;;;4992508;28;20034;-53
2023/07/10 09:31:53;;;;;;;49.53;9.38;;;27.60;76.00;;;;;;5019527;28;20036;-52
2023/07/10 09:34:20;;;;;;;42.83;9.50;;;27.70;76.00;;;;;;5015518;28;20030;-52
2023/07/10 09:36:50;;;;;;;59.50;8.63;;;27.60;75.90;;;;;;5013881;28;20026;-53
2023/07/10 09:39:16;;;;;;;41.53;9.00;;;27.70;75.90;;;;;;5007115;28;20030;-53
2023/07/10 09:41:42;;;;;;;39.17;9.30;;;27.70;75.70;;;;;;5017878;28;20118;-53
2023/07/10 09:44:18;;;;;;;30.02;8.05;;;27.70;75.80;;;;;;5016996;28;20031;-53
2023/07/10 09:46:44;;;;;;;43.17;8.02;;;27.80;75.40;;;;;;5021575;28;20030;-52
2023/07/10 09:49:20;;;;;;;36.03;7.38;;;27.80;75.10;;;;;;5019562;28;20096;-52
2023/07/10 09:51:56;;;;;;;33.90;7.50;;;27.80;74.90;;;;;;5023241;28;20037;-53
2023/07/10 09:54:22;;;;;;;28.25;6.95;;;27.80;76.20;;;;;;5015338;28;20038;-52
2023/07/10 09:56:48;;;;;;;41.15;7.93;;;27.80;75.30;;;;;;5024223;28;20033;-52
2023/07/10 09:59:27;;;;;;;30.35;6.97;;;27.80;75.30;;;;;;5005169;28;20030;-52
2023/07/10 10:01:53;;;;;;;20.45;7.10;;;27.80;75.20;;;;;;5020876;28;20089;-53
2023/07/10 10:04:24;;;;;;;28.02;7.35;;;27.80;75.30;;;;;;5022093;28;20109;-53
2023/07/10 10:07:01;;;;;;;23.30;6.35;;;27.80;75.40;;;;;;5012920;28;20045;-52
2023/07/10 10:09:28;;;;;;;19.60;6.10;;;27.80;75.40;;;;;;5019466;28;20076;-52
2023/07/10 10:11:55;;;;;;;28.58;7.00;;;27.80;75.30;;;;;;5006161;28;20026;-53
2023/07/10 10:14:34;;;;;;;18.20;6.10;;;27.90;75.50;;;;;;5023659;28;20022;-52
2023/07/10 10:17:02;;;;;;;20.27;6.40;;;27.90;75.70;;;;;;5020389;28;20060;-53
2023/07/10 10:19:32;;;;;;;20.17;6.63;;;27.90;76.00;;;;;;5003668;28;20112;-52
2023/07/10 10:21:57;;;;;;;30.00;6.75;;;27.90;76.40;;;;;;5018483;28;20064;-52
2023/07/10 10:24:23;;;;;;;31.83;8.13;;;27.90;76.30;;;;;;5012332;28;20038;-53
2023/07/10 10:26:59;;;;;;;41.17;7.20;;;28.00;76.70;;;;;;5021029;28;20022;-52
2023/07/10 10:29:47;;;;;;;41.60;8.05;;;28.00;76.80;;;;;;5015238;28;20382;-52
2023/07/10 10:32:17;;;;;;;24.50;6.40;;;28.00;76.80;;;;;;5008844;28;20029;-52
2023/07/10 10:35:04;;;;;;;41.10;7.82;;;28.00;76.80;;;;;;5022484;28;20020;-52
2023/07/10 10:37:36;;;;;;;35.25;7.90;;;28.10;77.10;;;;;;5020140;28;20038;-52
2023/07/10 10:40:33;;;;;;;48.90;9.20;;;28.20;77.00;;;;;;5017271;28;20033;-52
2023/07/10 10:43:02;;;;;;;35.22;8.50;;;28.20;76.80;;;;;;5014819;28;20042;-52
2023/07/10 10:45:34;;;;;;;50.30;8.43;;;28.20;76.60;;;;;;4996376;28;20475;-52
2023/07/10 10:48:14;;;;;;;32.78;7.47;;;28.20;76.70;;;;;;5021883;28;20033;-52
2023/07/10 10:50:57;;;;;;;36.55;8.15;;;28.20;76.70;;;;;;5018625;28;20367;-52
2023/07/10 10:53:35;;;;;;;45.35;8.55;;;28.20;76.70;;;;;;5015401;28;20089;-52
2023/07/10 10:56:25;;;;;;;48.75;8.43;;;28.30;76.90;;;;;;5021384;28;20030;-52
2023/07/10 10:59:14;;;;;;;44.20;9.57;;;28.40;76.60;;;;;;5021639;28;20109;-53
2023/07/10 11:02:09;;;;;;;50.75;8.48;;;28.40;76.30;;;;;;5029811;28;20026;-50
2023/07/10 11:04:43;;;;;;;60.28;11.57;;;28.50;76.30;;;;;;5013442;28;20041;-53
2023/07/10 11:07:14;;;;;;;66.95;11.48;;;28.60;75.90;;;;;;5004727;28;20034;-53
2023/07/10 11:09:47;;;;;;;96.40;13.55;;;28.60;75.50;;;;;;5018274;28;20042;-53
2023/07/10 11:12:18;;;;;;;63.38;12.27;;;28.70;75.40;;;;;;5020249;28;20030;-53
2023/07/10 11:14:44;;;;;;;70.22;11.70;;;28.70;74.80;;;;;;5021722;28;20377;-51
2023/07/10 11:17:13;;;;;;;92.85;15.68;;;28.80;74.00;;;;;;4998893;28;20104;-53
2023/07/10 11:19:39;;;;;;;89.45;13.43;;;28.90;73.70;;;;;;5016994;28;20044;-53
2023/07/10 11:22:20;;;;;;;60.45;10.50;;;28.90;73.70;;;;;;5000801;28;20050;-53
2023/07/10 11:24:49;;;;;;;50.25;10.13;;;29.00;73.60;;;;;;5013718;28;20054;-53
2023/07/10 11:27:36;;;;;;;41.80;8.30;;;29.00;73.20;;;;;;5014442;28;20040;-52
2023/07/10 11:30:13;;;;;;;38.83;8.05;;;29.10;73.00;;;;;;5018023;28;20470;-53
2023/07/10 11:32:58;;;;;;;44.97;8.10;;;29.20;72.80;;;;;;5013991;28;20070;-53
2023/07/10 11:35:24;;;;;;;31.17;7.07;;;29.30;72.00;;;;;;5000576;28;20052;-53
2023/07/10 11:37:50;;;;;;;81.30;11.10;;;29.40;70.50;;;;;;5018688;28;20102;-53
2023/07/10 11:40:28;;;;;;;44.80;8.63;;;29.50;70.20;;;;;;5010266;28;20030;-53
2023/07/10 11:43:20;;;;;;;33.92;7.93;;;29.60;69.90;;;;;;5031682;28;20033;-53
2023/07/10 11:45:53;;;;;;;58.25;8.90;;;29.70;69.60;;;;;;5015459;28;20061;-53
2023/07/10 11:48:39;;;;;;;39.55;7.47;;;29.70;69.10;;;;;;5012204;28;20475;-52
2023/07/10 11:51:21;;;;;;;28.73;6.28;;;29.80;67.90;;;;;;5019429;28;20036;-53
2023/07/10 11:53:47;;;;;;;32.83;7.15;;;29.90;66.30;;;;;;5013761;28;20043;-52
2023/07/10 11:56:16;;;;;;;27.02;5.93;;;29.90;65.30;;;;;;5019039;28;20018;-52
2023/07/10 11:58:42;;;;;;;34.17;6.68;;;30.00;65.30;;;;;;5021153;28;20049;-52
2023/07/10 12:01:17;;;;;;;27.38;6.53;;;30.00;65.60;;;;;;5020428;28;20022;-52
2023/07/10 12:03:45;;;;;;;40.67;8.63;;;30.10;65.60;;;;;;4997763;28;20041;-52
2023/07/10 12:06:15;;;;;;;50.33;8.75;;;30.10;65.80;;;;;;5013927;28;20045;-52
2023/07/10 12:08:40;;;;;;;38.75;8.55;;;30.20;66.00;;;;;;5021819;28;20022;-52
2023/07/10 12:11:33;;;;;;;35.03;7.43;;;30.20;66.00;;;;;;5025824;28;20029;-52
2023/07/10 12:14:26;;;;;;;41.58;8.25;;;30.30;66.30;;;;;;5020917;28;20036;-52
2023/07/10 12:16:58;;;;;;;47.92;9.20;;;30.40;65.80;;;;;;5006716;28;20048;-52
2023/07/10 12:19:26;;;;;;;48.13;10.10;;;30.50;65.20;;;;;;5022878;28;20064;-52
2023/07/10 12:21:52;;;;;;;72.63;10.07;;;30.50;64.80;;;;;;5021408;28;20034;-52
2023/07/10 12:24:17;;;;;;;44.83;9.85;;;30.60;64.10;;;;;;5021656;28;20041;-52
2023/07/10 12:26:43;;;;;;;46.10;9.85;;;30.70;64.00;;;;;;5023946;28;20062;-52
2023/07/10 12:29:13;;;;;;;46.53;9.45;;;30.80;63.90;;;;;;5023121;28;20033;-52
2023/07/10 12:31:39;;;;;;;54.67;10.95;;;30.80;63.60;;;;;;5020895;28;20034;-52
2023/07/10 12:34:05;;;;;;;34.13;7.85;;;30.80;63.50;;;;;;5019932;28;20049;-52
2023/07/10 12:36:37;;;;;;;28.02;7.10;;;30.90;63.90;;;;;;5025367;28;20033;-52
2023/07/10 12:39:04;;;;;;;45.33;7.57;;;31.00;63.10;;;;;;5027658;28;20034;-52
2023/07/10 12:41:34;;;;;;;26.80;7.22;;;31.00;63.20;;;;;;5017324;28;20037;-52
2023/07/10 12:44:01;;;;;;;52.92;8.70;;;31.00;63.00;;;;;;5008230;28;20034;-51
2023/07/10 12:46:28;;;;;;;69.82;12.68;;;31.10;63.00;;;;;;5025439;28;20030;-52
2023/07/10 12:49:01;;;;;;;59.88;11.32;;;31.10;63.10;;;;;;5011797;28;20030;-52